createdAt,value
2018-12-25T00:02:01.094Z,82.07
2018-12-25T00:04:48.238Z,82.77
2018-12-25T00:07:44.684Z,83.14
2018-12-25T00:10:34.393Z,83.35
2018-12-25T00:13:22.802Z,83.55
2018-12-25T00:16:26.080Z,83.67
2018-12-25T00:19:15.395Z,83.81
2018-12-25T00:22:02.588Z,83.92
2018-12-25T00:24:53.222Z,83.98
2018-12-25T00:27:41.525Z,84.01
2018-12-25T00:30:29.297Z,83.99
2018-12-25T00:33:17.592Z,84.01
2018-12-25T00:36:04.597Z,84.05
2018-12-25T00:38:52.156Z,84.08
2018-12-25T00:41:40.602Z,84.06
2018-12-25T00:44:31.408Z,83.97
2018-12-25T00:47:18.769Z,84.03
2018-12-25T00:53:16.187Z,84.13
2018-12-25T00:56:03.501Z,84.12
2018-12-25T00:58:50.888Z,84.18
2018-12-25T01:01:38.053Z,84.17
2018-12-25T01:04:25.567Z,84.18
2018-12-25T01:07:13.304Z,84.18
2018-12-25T01:10:00.340Z,84.19
2018-12-25T01:12:47.904Z,84.18
2018-12-25T01:15:34.854Z,84.19
2018-12-25T01:18:22.441Z,84.23
2018-12-25T01:21:09.771Z,84.18
2018-12-25T01:23:57.056Z,84.20
2018-12-25T01:26:44.295Z,84.23
2018-12-25T01:29:32.885Z,82.66
2018-12-25T01:32:20.342Z,83.25
2018-12-25T01:35:07.693Z,81.68
2018-12-25T01:37:54.848Z,82.44
2018-12-25T01:40:42.231Z,82.83
2018-12-25T01:43:29.547Z,83.10
2018-12-25T01:46:17.722Z,83.29
2018-12-25T01:49:05.047Z,83.39
2018-12-25T01:52:00.924Z,83.34
2018-12-25T01:54:49.211Z,83.39
2018-12-25T01:57:36.737Z,83.44
2018-12-25T02:00:23.918Z,83.43
2018-12-25T02:03:13.071Z,83.37
2018-12-25T02:06:02.006Z,83.35
2018-12-25T02:08:48.977Z,83.32
2018-12-25T02:11:36.202Z,83.27
2018-12-25T02:14:26.353Z,83.24
2018-12-25T02:20:19.658Z,82.94
2018-12-25T02:26:13.641Z,82.71
2018-12-25T02:29:01.120Z,81.02
2018-12-25T02:34:56.017Z,81.92
2018-12-25T02:38:04.320Z,80.33
2018-12-25T02:40:51.356Z,80.98
2018-12-25T02:43:54.466Z,81.49
2018-12-25T02:46:41.918Z,81.77
2018-12-25T02:52:36.924Z,80.26
2018-12-25T02:55:24.658Z,81.02
2018-12-25T02:58:12.860Z,81.38
2018-12-25T03:01:01.414Z,81.57
2018-12-25T03:03:49.517Z,81.83
2018-12-25T03:06:37.285Z,81.96
2018-12-25T03:12:34.161Z,82.22
2018-12-25T03:15:21.879Z,82.24
2018-12-25T03:21:17.435Z,82.41
2018-12-25T03:27:13.361Z,82.75
2018-12-25T03:33:06.951Z,83.11
2018-12-25T03:39:02.534Z,83.60
2018-12-25T03:41:50.353Z,83.85
2018-12-25T03:50:51.481Z,84.09
2018-12-25T03:53:47.805Z,84.14
2018-12-25T03:56:37.321Z,84.14
2018-12-25T03:59:26.926Z,84.12
2018-12-25T04:02:15.978Z,84.06
2018-12-25T04:05:04.185Z,84.13
2018-12-25T04:07:52.276Z,82.44
2018-12-25T04:10:40.049Z,83.00
2018-12-25T04:13:28.470Z,83.29
2018-12-25T04:16:16.703Z,83.53
2018-12-25T04:19:05.317Z,82.12
2018-12-25T04:21:54.190Z,82.80
2018-12-25T04:24:41.887Z,83.11
2018-12-25T04:27:39.241Z,83.36
2018-12-25T04:30:29.727Z,83.64
2018-12-25T04:33:17.349Z,83.87
2018-12-25T04:36:07.073Z,82.31
2018-12-25T04:39:01.719Z,83.03
2018-12-25T04:45:05.335Z,83.66
2018-12-25T04:51:00.785Z,84.03
2018-12-25T04:53:52.083Z,84.15
2018-12-25T04:56:38.970Z,84.21
2018-12-25T05:02:34.391Z,83.06
2018-12-25T05:05:22.086Z,83.35
2018-12-25T05:08:11.374Z,83.46
2018-12-25T05:10:58.228Z,83.55
2018-12-25T05:13:54.455Z,83.64
2018-12-25T05:16:42.895Z,83.70
2018-12-25T05:19:32.748Z,83.80
2018-12-25T05:25:35.026Z,83.87
2018-12-25T05:28:23.959Z,83.80
2018-12-25T05:31:11.495Z,82.23
2018-12-25T05:34:06.990Z,82.71
2018-12-25T05:36:54.159Z,83.02
2018-12-25T05:39:41.695Z,83.17
2018-12-25T05:42:29.458Z,83.33
2018-12-25T05:45:16.425Z,83.45
2018-12-25T05:48:04.855Z,83.61
2018-12-25T05:50:53.411Z,83.65
2018-12-25T05:57:04.699Z,83.92
2018-12-25T05:59:51.555Z,83.95
2018-12-25T06:08:57.643Z,84.16
2018-12-25T06:11:45.251Z,84.18
2018-12-25T06:17:39.729Z,83.17
2018-12-25T06:20:27.464Z,83.37
2018-12-25T06:23:16.374Z,83.54
2018-12-25T06:26:04.143Z,83.58
2018-12-25T06:28:52.615Z,82.04
2018-12-25T06:31:39.996Z,82.62
2018-12-25T06:34:29.537Z,81.16
2018-12-25T06:43:32.637Z,80.95
2018-12-25T06:46:31.320Z,81.79
2018-12-25T06:49:18.503Z,82.25
2018-12-25T06:55:14.212Z,82.97
2018-12-25T07:04:14.886Z,83.52
2018-12-25T07:07:10.533Z,83.59
2018-12-25T07:09:58.373Z,83.68
2018-12-25T07:12:46.056Z,83.82
2018-12-25T07:15:33.593Z,83.87
2018-12-25T07:18:20.861Z,83.91
2018-12-25T07:21:12.323Z,83.98
2018-12-25T07:23:56.540Z,84.08
2018-12-25T07:29:50.890Z,84.37
2018-12-25T07:32:38.824Z,84.41
2018-12-25T07:35:26.991Z,84.54
2018-12-25T07:38:14.042Z,84.53
2018-12-25T07:41:01.625Z,84.51
2018-12-25T07:43:50.989Z,84.56
2018-12-25T07:46:40.607Z,84.59
2018-12-25T07:49:43.683Z,84.64
2018-12-25T07:52:34.021Z,84.64
2018-12-25T07:55:22.585Z,84.62
2018-12-25T07:58:10.153Z,84.55
2018-12-25T08:00:57.631Z,84.55
2018-12-25T08:03:45.204Z,84.54
2018-12-25T08:06:32.800Z,82.94
2018-12-25T08:15:33.837Z,83.73
2018-12-25T08:18:21.024Z,83.81
2018-12-25T08:21:08.372Z,83.91
2018-12-25T08:24:03.549Z,83.93
2018-12-25T08:26:54.007Z,84.00
2018-12-25T08:29:41.328Z,82.33
2018-12-25T08:32:29.685Z,82.89
2018-12-25T08:35:17.215Z,83.19
2018-12-25T08:38:05.229Z,83.36
2018-12-25T08:40:52.551Z,83.51
2018-12-25T08:43:41.676Z,83.67
2018-12-25T08:52:50.112Z,83.94
2018-12-25T08:55:39.440Z,82.07
2018-12-25T09:03:03.297Z,83.34
2018-12-25T09:05:51.445Z,83.53
2018-12-25T09:30:13.820Z,80.94
2018-12-25T09:33:04.864Z,81.81
2018-12-25T09:35:53.229Z,82.22
2018-12-25T09:38:40.796Z,80.52
2018-12-25T09:41:33.557Z,81.20
2018-12-25T09:44:20.730Z,81.76
2018-12-25T09:47:09.222Z,79.94
2018-12-25T09:50:12.378Z,81.01
2018-12-25T09:53:00.174Z,81.61
2018-12-25T09:55:47.662Z,79.79
2018-12-25T09:58:34.974Z,80.75
2018-12-25T10:01:24.228Z,81.31
2018-12-25T11:31:49.506Z,79.08
2018-12-25T11:41:08.018Z,78.99
2018-12-25T12:11:55.366Z,78.75
2018-12-25T16:34:30.690Z,72.19
2018-12-25T18:41:57.708Z,74.48
2018-12-25T20:20:31.599Z,76.09
2018-12-25T21:37:00.732Z,77.00
2018-12-25T21:58:54.993Z,78.26
2018-12-25T22:01:48.458Z,78.31
2018-12-25T22:04:35.981Z,78.42
2018-12-25T22:07:27.974Z,76.30
2018-12-25T22:10:17.632Z,74.99
2018-12-25T22:25:34.791Z,77.56
2018-12-25T22:28:26.507Z,77.71
2018-12-25T22:46:50.483Z,76.90
2018-12-25T22:49:46.513Z,77.12
2018-12-25T22:55:41.263Z,77.35
